Time;durP1;ratioP1;P1;durP2;ratioP2;P2;SDS_P1;SDS_P2;PMS_P1;PMS_P2;Temp;Humidity;BMP_temperature;BMP_pressure;BME280_temperature;BME280_humidity;BME280_pressure;Samples;Min_cycle;Max_cycle;Signal;HPM_P1;HPM_P2
2023/11/28 00:01:56;;;;;;;0.20;0.00;;;;;;;;;;5066369;28;20037;-84
2023/11/28 00:04:34;;;;;;;0.20;0.10;;;;;;;;;;5044005;28;20519;-83
2023/11/28 00:07:09;;;;;;;0.60;0.55;;;;;;;;;;5047216;28;20066;-85
2023/11/28 00:09:47;;;;;;;0.20;0.10;;;;;;;;;;5069749;28;20029;-84
2023/11/28 00:12:16;;;;;;;0.20;0.10;;;;;;;;;;5057743;28;20724;-82
2023/11/28 00:14:44;;;;;;;0.20;0.05;;;;;;;;;;5051287;28;20036;-86
2023/11/28 00:17:11;;;;;;;0.20;0.10;;;;;;;;;;5073429;28;20104;-85
2023/11/28 00:19:39;;;;;;;0.20;0.10;;;;;;;;;;5058360;28;20040;-85
2023/11/28 00:22:05;;;;;;;0.20;0.10;;;;;;;;;;5042853;28;20048;-84
2023/11/28 00:24:39;;;;;;;0.20;0.05;;;;;;;;;;5052941;28;20041;-86
2023/11/28 00:27:17;;;;;;;0.20;0.10;;;;;;;;;;5050498;28;20312;-85
2023/11/28 00:29:44;;;;;;;0.20;0.10;;;;;;;;;;5088956;28;20040;-85
2023/11/28 00:32:13;;;;;;;0.20;0.10;;;;;;;;;;5053007;28;20041;-87
2023/11/28 00:34:39;;;;;;;0.20;0.10;;;;;;;;;;5053588;28;20056;-83
2023/11/28 00:37:25;;;;;;;0.20;0.20;;;;;;;;;;5070487;28;20155;-85
2023/11/28 00:40:00;;;;;;;0.20;0.10;;;;;;;;;;5071877;28;20170;-87
2023/11/28 00:42:29;;;;;;;0.20;0.00;;;;;;;;;;5082937;28;20055;-83
2023/11/28 00:44:57;;;;;;;0.20;0.00;;;;;;;;;;5051118;28;20120;-84
2023/11/28 00:47:23;;;;;;;0.20;0.10;;;;;;;;;;5054619;28;20047;-86
2023/11/28 00:49:49;;;;;;;0.20;0.10;;;;;;;;;;5068282;28;20043;-84
2023/11/28 00:52:17;;;;;;;0.20;0.00;;;;;;;;;;5066683;28;20123;-84
2023/11/28 00:54:55;;;;;;;0.30;0.22;;;;;;;;;;5083535;28;20039;-88
2023/11/28 00:57:23;;;;;;;0.20;0.10;;;;;;;;;;5064832;28;20040;-84
2023/11/28 00:59:51;;;;;;;0.20;0.10;;;;;;;;;;5062293;28;20040;-85
2023/11/28 01:02:23;;;;;;;0.20;0.10;;;;;;;;;;5061943;28;20042;-85
2023/11/28 01:04:53;;;;;;;0.20;0.10;;;;;;;;;;5005137;28;1113873;-85
2023/11/28 01:07:22;;;;;;;0.20;0.00;;;;;;;;;;5055223;28;20040;-85
2023/11/28 01:09:57;;;;;;;0.20;0.10;;;;;;;;;;5029851;28;20064;-85
2023/11/28 01:12:24;;;;;;;0.20;0.10;;;;;;;;;;5051754;28;20040;-86
2023/11/28 01:14:50;;;;;;;0.20;0.00;;;;;;;;;;5084674;28;20072;-84
2023/11/28 01:17:19;;;;;;;0.20;0.00;;;;;;;;;;5033158;28;20037;-84
2023/11/28 01:19:48;;;;;;;0.20;0.10;;;;;;;;;;5066738;28;20047;-85
2023/11/28 01:22:23;;;;;;;0.20;0.10;;;;;;;;;;5034896;28;20512;-82
2023/11/28 01:24:54;;;;;;;0.20;0.10;;;;;;;;;;5044333;28;20037;-84
2023/11/28 01:27:20;;;;;;;0.20;0.10;;;;;;;;;;5039359;28;20032;-82
2023/11/28 01:29:51;;;;;;;0.20;0.10;;;;;;;;;;5081353;28;20032;-85
2023/11/28 01:32:20;;;;;;;0.20;0.10;;;;;;;;;;5065873;28;20091;-84
2023/11/28 01:34:55;;;;;;;0.20;0.10;;;;;;;;;;5078348;28;20496;-85
2023/11/28 01:37:27;;;;;;;0.20;0.08;;;;;;;;;;5037003;28;20060;-84
2023/11/28 01:39:53;;;;;;;0.20;0.00;;;;;;;;;;5055024;28;20047;-85
2023/11/28 01:42:21;;;;;;;0.20;0.10;;;;;;;;;;5068744;28;20047;-84
2023/11/28 01:44:47;;;;;;;0.20;0.10;;;;;;;;;;5036761;28;20115;-83
2023/11/28 01:47:14;;;;;;;0.20;0.00;;;;;;;;;;5032521;28;20127;-85
2023/11/28 01:49:41;;;;;;;0.20;0.10;;;;;;;;;;5065329;28;20036;-85
2023/11/28 01:52:10;;;;;;;0.20;0.10;;;;;;;;;;5070370;28;20082;-84
2023/11/28 01:54:36;;;;;;;0.20;0.10;;;;;;;;;;5065172;28;20045;-85
2023/11/28 01:57:02;;;;;;;0.20;0.10;;;;;;;;;;5063567;28;21182;-86
2023/11/28 01:59:29;;;;;;;0.20;0.10;;;;;;;;;;5046694;28;20044;-87
2023/11/28 02:02:04;;;;;;;0.20;0.10;;;;;;;;;;5033804;28;20078;-84
2023/11/28 02:04:43;;;;;;;0.20;0.10;;;;;;;;;;5064490;28;20037;-86
2023/11/28 02:07:09;;;;;;;0.20;0.00;;;;;;;;;;5034702;28;20048;-84
2023/11/28 02:09:38;;;;;;;0.20;0.10;;;;;;;;;;5051079;28;20037;-84
2023/11/28 02:12:04;;;;;;;0.30;0.30;;;;;;;;;;5076508;28;20041;-85
2023/11/28 02:14:30;;;;;;;0.20;0.10;;;;;;;;;;5069925;28;20040;-83
2023/11/28 02:17:07;;;;;;;0.20;0.10;;;;;;;;;;5072144;28;20094;-85
2023/11/28 02:19:36;;;;;;;0.20;0.10;;;;;;;;;;5052125;28;20520;-84
2023/11/28 02:22:02;;;;;;;0.20;0.10;;;;;;;;;;5072581;28;20502;-85
2023/11/28 02:24:41;;;;;;;0.20;0.10;;;;;;;;;;5069418;28;20090;-85
2023/11/28 02:27:07;;;;;;;0.20;0.00;;;;;;;;;;5029386;28;20059;-85
2023/11/28 02:29:36;;;;;;;0.20;0.10;;;;;;;;;;5033051;28;20040;-83
2023/11/28 02:32:02;;;;;;;0.20;0.10;;;;;;;;;;5079648;28;20093;-84
2023/11/28 02:34:28;;;;;;;1.00;0.68;;;;;;;;;;5065414;28;20049;-83
2023/11/28 02:36:54;;;;;;;0.20;0.10;;;;;;;;;;5079258;28;20040;-83
2023/11/28 02:39:22;;;;;;;0.20;0.10;;;;;;;;;;5034367;28;20044;-84
2023/11/28 02:41:49;;;;;;;0.20;0.10;;;;;;;;;;5067304;28;20062;-84
2023/11/28 02:44:18;;;;;;;0.20;0.10;;;;;;;;;;5036763;28;20060;-86
2023/11/28 02:46:47;;;;;;;0.20;0.10;;;;;;;;;;5035591;28;20413;-88
2023/11/28 02:49:15;;;;;;;0.20;0.10;;;;;;;;;;5048959;28;20040;-82
2023/11/28 02:51:41;;;;;;;0.20;0.10;;;;;;;;;;5066790;28;20049;-84
2023/11/28 02:54:07;;;;;;;0.20;0.10;;;;;;;;;;5054319;28;20090;-85
2023/11/28 02:56:33;;;;;;;0.20;0.10;;;;;;;;;;5075514;28;20501;-82
2023/11/28 02:58:59;;;;;;;0.20;0.10;;;;;;;;;;5078201;28;20036;-82
2023/11/28 03:01:25;;;;;;;0.20;0.10;;;;;;;;;;5079565;28;20037;-82
2023/11/28 03:03:51;;;;;;;1.10;0.38;;;;;;;;;;5062350;28;20040;-83
2023/11/28 03:06:20;;;;;;;0.20;0.10;;;;;;;;;;5039058;28;20028;-86
2023/11/28 03:08:46;;;;;;;0.20;0.10;;;;;;;;;;5064664;28;20032;-85
2023/11/28 03:11:12;;;;;;;0.20;0.10;;;;;;;;;;5038092;28;20040;-85
2023/11/28 03:13:40;;;;;;;0.20;0.10;;;;;;;;;;5047843;28;20040;-86
2023/11/28 03:16:12;;;;;;;0.20;0.10;;;;;;;;;;5076784;28;20466;-86
2023/11/28 03:18:47;;;;;;;0.20;0.10;;;;;;;;;;5062813;28;20075;-85
2023/11/28 03:21:14;;;;;;;0.20;0.10;;;;;;;;;;5068367;28;20166;-83
2023/11/28 03:23:40;;;;;;;0.20;0.10;;;;;;;;;;5068455;28;20440;-85
2023/11/28 03:26:09;;;;;;;0.20;0.10;;;;;;;;;;5053825;28;20040;-84
2023/11/28 03:28:35;;;;;;;0.20;0.10;;;;;;;;;;5063957;28;20118;-86
2023/11/28 03:31:05;;;;;;;0.20;0.00;;;;;;;;;;5034876;28;20527;-87
2023/11/28 03:33:32;;;;;;;0.20;0.00;;;;;;;;;;5065456;28;20397;-87
2023/11/28 03:36:04;;;;;;;0.20;0.00;;;;;;;;;;5064004;28;20048;-85
2023/11/28 03:38:38;;;;;;;0.20;0.03;;;;;;;;;;5029727;28;20040;-83
2023/11/28 03:41:11;;;;;;;0.20;0.00;;;;;;;;;;5036488;28;20592;-85
2023/11/28 03:43:43;;;;;;;0.20;0.10;;;;;;;;;;5077130;28;20033;-88
2023/11/28 03:46:09;;;;;;;0.20;0.10;;;;;;;;;;5074720;28;20386;-85
2023/11/28 03:48:35;;;;;;;0.20;0.10;;;;;;;;;;5078560;28;20044;-87
2023/11/28 03:51:08;;;;;;;0.20;0.10;;;;;;;;;;5033177;28;20029;-84
2023/11/28 03:53:36;;;;;;;0.20;0.05;;;;;;;;;;5035071;28;20128;-83
2023/11/28 03:56:06;;;;;;;0.20;0.00;;;;;;;;;;5031676;28;20059;-80
2023/11/28 03:58:32;;;;;;;0.20;0.10;;;;;;;;;;5031036;28;20528;-88
2023/11/28 04:00:58;;;;;;;0.20;0.10;;;;;;;;;;5040014;28;20043;-85
2023/11/28 04:03:25;;;;;;;0.20;0.10;;;;;;;;;;5049798;28;20032;-84
2023/11/28 04:05:52;;;;;;;0.20;0.10;;;;;;;;;;5045111;23;20521;-87
2023/11/28 04:08:18;;;;;;;0.20;0.10;;;;;;;;;;4987275;28;20502;-85
2023/11/28 04:10:44;;;;;;;0.20;0.10;;;;;;;;;;4990895;28;20125;-87
2023/11/28 04:13:10;;;;;;;0.20;0.10;;;;;;;;;;4987933;28;20117;-84
2023/11/28 04:15:39;;;;;;;0.20;0.00;;;;;;;;;;4989655;28;20659;-83
2023/11/28 04:18:05;;;;;;;0.20;0.10;;;;;;;;;;4976774;28;20074;-85
2023/11/28 04:20:31;;;;;;;0.20;0.10;;;;;;;;;;4986158;28;20048;-83
2023/11/28 04:22:57;;;;;;;0.20;0.10;;;;;;;;;;5000328;28;20033;-83
2023/11/28 04:25:23;;;;;;;0.20;0.10;;;;;;;;;;4997260;28;20072;-85
2023/11/28 04:27:49;;;;;;;0.20;0.10;;;;;;;;;;4989523;28;20040;-83
2023/11/28 04:30:16;;;;;;;0.20;0.10;;;;;;;;;;4986731;28;20136;-83
2023/11/28 04:32:45;;;;;;;0.20;0.10;;;;;;;;;;4986401;28;20042;-85
2023/11/28 04:35:11;;;;;;;0.20;0.10;;;;;;;;;;4999918;28;20129;-84
2023/11/28 04:37:37;;;;;;;0.20;0.10;;;;;;;;;;5000381;28;20049;-84
2023/11/28 04:40:04;;;;;;;0.20;0.10;;;;;;;;;;4999590;28;20034;-84
2023/11/28 04:42:31;;;;;;;0.20;0.10;;;;;;;;;;4987488;28;20037;-84
2023/11/28 04:44:57;;;;;;;0.20;0.10;;;;;;;;;;4986532;28;20053;-83
2023/11/28 04:47:23;;;;;;;0.20;0.10;;;;;;;;;;4989087;28;20122;-82
2023/11/28 04:49:49;;;;;;;0.20;0.10;;;;;;;;;;4996070;28;20153;-82
2023/11/28 04:52:15;;;;;;;0.20;0.10;;;;;;;;;;4996835;28;20578;-85
2023/11/28 04:54:41;;;;;;;0.20;0.10;;;;;;;;;;4988073;28;20048;-84
2023/11/28 04:57:07;;;;;;;0.20;0.10;;;;;;;;;;4979823;28;20049;-85
2023/11/28 04:59:33;;;;;;;0.20;0.10;;;;;;;;;;4985830;28;20108;-86
2023/11/28 05:01:59;;;;;;;0.20;0.00;;;;;;;;;;5002048;28;20478;-83
2023/11/28 05:04:25;;;;;;;0.20;0.10;;;;;;;;;;4986741;28;20141;-84
2023/11/28 05:06:51;;;;;;;0.20;0.10;;;;;;;;;;4987065;28;20040;-84
2023/11/28 05:09:17;;;;;;;0.20;0.10;;;;;;;;;;5000539;28;20438;-84
2023/11/28 05:11:49;;;;;;;0.20;0.10;;;;;;;;;;4998678;28;20064;-84
2023/11/28 05:14:15;;;;;;;0.20;0.10;;;;;;;;;;4989618;28;20505;-83
2023/11/28 05:16:41;;;;;;;0.20;0.17;;;;;;;;;;5004145;28;20105;-83
2023/11/28 05:19:08;;;;;;;0.20;0.10;;;;;;;;;;5009528;28;20065;-85
2023/11/28 05:21:34;;;;;;;0.20;0.08;;;;;;;;;;4989518;28;20768;-83
2023/11/28 05:24:01;;;;;;;0.20;0.10;;;;;;;;;;4986832;28;20383;-83
2023/11/28 05:26:27;;;;;;;0.20;0.00;;;;;;;;;;5006000;28;20061;-83
2023/11/28 05:28:53;;;;;;;0.20;0.10;;;;;;;;;;4988579;28;20030;-83
2023/11/28 05:31:19;;;;;;;0.20;0.10;;;;;;;;;;5005187;28;20585;-85
2023/11/28 05:33:45;;;;;;;0.20;0.17;;;;;;;;;;5001358;28;20069;-84
2023/11/28 05:36:11;;;;;;;0.20;0.05;;;;;;;;;;5002689;28;20038;-87
2023/11/28 05:38:37;;;;;;;0.20;0.10;;;;;;;;;;4988757;28;20124;-87
2023/11/28 05:41:09;;;;;;;0.20;0.00;;;;;;;;;;4988005;28;20561;-85
2023/11/28 05:43:41;;;;;;;0.20;0.10;;;;;;;;;;4989031;28;20038;-84
2023/11/28 05:46:07;;;;;;;0.20;0.10;;;;;;;;;;4990787;28;20418;-83
2023/11/28 05:48:33;;;;;;;0.20;0.08;;;;;;;;;;4991923;28;20037;-83
2023/11/28 05:50:59;;;;;;;0.20;0.10;;;;;;;;;;5004188;28;20053;-84
2023/11/28 05:53:25;;;;;;;0.20;0.10;;;;;;;;;;4993019;28;20041;-84
2023/11/28 05:55:52;;;;;;;0.20;0.10;;;;;;;;;;4987652;28;20112;-84
2023/11/28 05:58:18;;;;;;;0.20;0.00;;;;;;;;;;5005237;28;20045;-83
2023/11/28 06:00:44;;;;;;;0.20;0.10;;;;;;;;;;4988263;28;20045;-83
2023/11/28 06:03:10;;;;;;;0.20;0.10;;;;;;;;;;5001233;28;20502;-84
2023/11/28 06:05:37;;;;;;;0.20;0.00;;;;;;;;;;4986771;28;20789;-84
2023/11/28 06:08:03;;;;;;;0.20;0.03;;;;;;;;;;4999972;28;20068;-86
2023/11/28 06:10:29;;;;;;;0.20;0.20;;;;;;;;;;4989933;28;20037;-85
2023/11/28 06:12:56;;;;;;;0.20;0.10;;;;;;;;;;4996559;28;20698;-84
2023/11/28 06:15:22;;;;;;;0.20;0.10;;;;;;;;;;4990725;28;20034;-83
2023/11/28 06:17:48;;;;;;;0.20;0.10;;;;;;;;;;5001744;28;20057;-85
2023/11/28 06:20:17;;;;;;;0.95;0.30;;;;;;;;;;4993507;28;20042;-83
2023/11/28 06:22:43;;;;;;;0.20;0.10;;;;;;;;;;5000997;28;20034;-85
2023/11/28 06:25:12;;;;;;;0.90;0.40;;;;;;;;;;4992618;28;20038;-85
2023/11/28 06:27:38;;;;;;;0.20;0.10;;;;;;;;;;4983983;28;20044;-84
2023/11/28 06:30:06;;;;;;;0.20;0.10;;;;;;;;;;5005415;28;20064;-85
2023/11/28 06:32:32;;;;;;;0.20;0.10;;;;;;;;;;4976977;28;20168;-86
2023/11/28 06:34:58;;;;;;;0.20;0.10;;;;;;;;;;5005157;28;20196;-85
2023/11/28 06:37:24;;;;;;;0.20;0.10;;;;;;;;;;4984696;28;20755;-83
2023/11/28 06:39:51;;;;;;;0.20;0.10;;;;;;;;;;5000285;28;20130;-85
2023/11/28 06:42:18;;;;;;;0.20;0.10;;;;;;;;;;5003358;28;20490;-84
2023/11/28 06:44:47;;;;;;;0.20;0.10;;;;;;;;;;4986249;28;20096;-83
2023/11/28 06:47:13;;;;;;;0.20;0.10;;;;;;;;;;5000478;28;20124;-85
2023/11/28 06:49:39;;;;;;;0.20;0.10;;;;;;;;;;5004938;28;20076;-84
2023/11/28 06:52:06;;;;;;;0.40;0.40;;;;;;;;;;5002104;28;20081;-85
2023/11/28 06:54:33;;;;;;;0.20;0.10;;;;;;;;;;4984031;28;20050;-84
2023/11/28 06:56:59;;;;;;;0.20;0.10;;;;;;;;;;4995172;28;20494;-85
2023/11/28 06:59:25;;;;;;;0.20;0.10;;;;;;;;;;4989668;28;20042;-84
2023/11/28 07:01:52;;;;;;;0.25;0.17;;;;;;;;;;4980280;28;20033;-84
2023/11/28 07:04:18;;;;;;;0.20;0.10;;;;;;;;;;4989558;28;20046;-84
2023/11/28 07:06:44;;;;;;;0.20;0.10;;;;;;;;;;4999071;28;20105;-84
2023/11/28 07:09:10;;;;;;;0.20;0.10;;;;;;;;;;4999870;28;20042;-84
2023/11/28 07:11:36;;;;;;;0.20;0.10;;;;;;;;;;4980844;28;20049;-85
2023/11/28 07:14:02;;;;;;;0.20;0.10;;;;;;;;;;4999692;28;20077;-84
2023/11/28 07:16:28;;;;;;;0.20;0.10;;;;;;;;;;5006873;28;20073;-84
2023/11/28 07:18:55;;;;;;;0.20;0.00;;;;;;;;;;4997399;28;20459;-83
2023/11/28 07:21:21;;;;;;;0.20;0.10;;;;;;;;;;4982968;28;20042;-83
2023/11/28 07:23:47;;;;;;;0.20;0.10;;;;;;;;;;4986727;28;20042;-83
2023/11/28 07:26:14;;;;;;;0.20;0.10;;;;;;;;;;5000332;28;20042;-84
2023/11/28 07:28:40;;;;;;;0.20;0.08;;;;;;;;;;4986582;28;20084;-84
2023/11/28 07:31:06;;;;;;;0.20;0.10;;;;;;;;;;5006169;28;20503;-84
2023/11/28 07:33:32;;;;;;;0.20;0.10;;;;;;;;;;5003355;28;20257;-84
2023/11/28 07:35:58;;;;;;;0.20;0.10;;;;;;;;;;5002466;28;20038;-84
2023/11/28 07:38:24;;;;;;;0.20;0.10;;;;;;;;;;4990326;28;20073;-84
2023/11/28 07:40:53;;;;;;;0.20;0.10;;;;;;;;;;4988964;28;20030;-84
2023/11/28 07:43:19;;;;;;;0.20;0.10;;;;;;;;;;4996333;28;20037;-84
2023/11/28 07:45:45;;;;;;;0.20;0.10;;;;;;;;;;4984781;28;20050;-84
2023/11/28 07:48:12;;;;;;;0.20;0.00;;;;;;;;;;4997808;28;20117;-84
2023/11/28 07:50:38;;;;;;;0.20;0.10;;;;;;;;;;4996233;28;20046;-84
2023/11/28 07:53:06;;;;;;;0.20;0.10;;;;;;;;;;5001048;28;20816;-84
2023/11/28 07:55:32;;;;;;;0.20;0.00;;;;;;;;;;4985892;28;20598;-84
2023/11/28 07:57:58;;;;;;;0.20;0.10;;;;;;;;;;5001501;28;20057;-84
2023/11/28 08:00:25;;;;;;;0.20;0.00;;;;;;;;;;5001489;28;20049;-84
2023/11/28 08:02:51;;;;;;;0.20;0.08;;;;;;;;;;4990306;28;20038;-84
2023/11/28 08:05:17;;;;;;;0.20;0.00;;;;;;;;;;4994383;28;20037;-85
2023/11/28 08:07:43;;;;;;;0.20;0.10;;;;;;;;;;4997452;28;20041;-84
2023/11/28 08:10:13;;;;;;;0.20;0.10;;;;;;;;;;5002472;28;20038;-84
2023/11/28 08:12:39;;;;;;;0.20;0.10;;;;;;;;;;5000008;28;20521;-84
2023/11/28 08:15:10;;;;;;;0.20;0.10;;;;;;;;;;4993608;28;20042;-84
2023/11/28 08:17:36;;;;;;;0.20;0.17;;;;;;;;;;4985536;28;20566;-84
2023/11/28 08:20:03;;;;;;;0.20;0.10;;;;;;;;;;4999101;28;20181;-85
2023/11/28 08:22:30;;;;;;;0.20;0.10;;;;;;;;;;5000671;28;20034;-84
2023/11/28 08:24:56;;;;;;;0.20;0.10;;;;;;;;;;5001441;28;20053;-85
2023/11/28 08:27:22;;;;;;;0.20;0.10;;;;;;;;;;5002950;28;20057;-84
2023/11/28 08:29:48;;;;;;;0.20;0.10;;;;;;;;;;4988011;28;20048;-84
2023/11/28 08:32:16;;;;;;;0.20;0.10;;;;;;;;;;4988121;28;20042;-85
2023/11/28 08:34:42;;;;;;;0.20;0.10;;;;;;;;;;4984113;28;20048;-84
2023/11/28 08:37:07;;;;;;;0.20;0.10;;;;;;;;;;5007071;28;20106;-83
2023/11/28 08:39:33;;;;;;;0.20;0.10;;;;;;;;;;5006263;28;20034;-85
2023/11/28 08:42:00;;;;;;;0.20;0.10;;;;;;;;;;4997752;28;20038;-85
2023/11/28 08:44:26;;;;;;;0.20;0.03;;;;;;;;;;4999134;28;20062;-85
2023/11/28 08:46:52;;;;;;;0.20;0.10;;;;;;;;;;4984147;28;20099;-84
2023/11/28 08:49:18;;;;;;;0.20;0.15;;;;;;;;;;4995958;28;20034;-84
2023/11/28 08:51:44;;;;;;;0.20;0.10;;;;;;;;;;5011734;28;20537;-84
2023/11/28 08:54:10;;;;;;;0.20;0.10;;;;;;;;;;4997221;28;20041;-85
2023/11/28 08:56:36;;;;;;;0.20;0.10;;;;;;;;;;4985297;28;20084;-84
2023/11/28 08:59:02;;;;;;;0.20;0.10;;;;;;;;;;4985171;28;20158;-84
2023/11/28 09:01:28;;;;;;;0.20;0.10;;;;;;;;;;5000324;28;20038;-84
2023/11/28 09:03:54;;;;;;;0.20;0.10;;;;;;;;;;5003611;28;20045;-86
2023/11/28 09:06:20;;;;;;;0.20;0.10;;;;;;;;;;4992545;28;20149;-84
2023/11/28 09:08:46;;;;;;;0.20;0.10;;;;;;;;;;5001785;28;20488;-84
2023/11/28 09:11:13;;;;;;;0.20;0.10;;;;;;;;;;5007790;28;20077;-85
2023/11/28 09:13:39;;;;;;;0.20;0.10;;;;;;;;;;4990467;28;20472;-83
2023/11/28 09:16:09;;;;;;;0.20;0.10;;;;;;;;;;4982793;28;20042;-85
2023/11/28 09:18:38;;;;;;;0.20;0.10;;;;;;;;;;5003170;28;20052;-86
2023/11/28 09:21:04;;;;;;;0.20;0.10;;;;;;;;;;5003793;28;20045;-84
2023/11/28 09:23:34;;;;;;;0.20;0.10;;;;;;;;;;4991600;28;20096;-86
2023/11/28 09:26:00;;;;;;;0.20;0.10;;;;;;;;;;4986044;28;20038;-84
2023/11/28 09:28:26;;;;;;;0.20;0.10;;;;;;;;;;4999065;28;20064;-83
2023/11/28 09:30:52;;;;;;;0.20;0.10;;;;;;;;;;4992249;28;20402;-83
2023/11/28 09:33:21;;;;;;;0.20;0.10;;;;;;;;;;4990200;28;20038;-83
2023/11/28 09:35:47;;;;;;;0.20;0.00;;;;;;;;;;5008041;28;20107;-85
2023/11/28 09:38:13;;;;;;;0.20;0.10;;;;;;;;;;5004325;28;20074;-83
2023/11/28 09:40:39;;;;;;;0.20;0.10;;;;;;;;;;5006188;28;20247;-83
2023/11/28 09:43:05;;;;;;;0.20;0.10;;;;;;;;;;5005772;28;20044;-83
2023/11/28 09:45:33;;;;;;;0.50;0.28;;;;;;;;;;5006360;28;20129;-84
2023/11/28 09:48:06;;;;;;;0.20;0.10;;;;;;;;;;4999086;28;20132;-83
2023/11/28 09:50:32;;;;;;;;;;;;;;;;;;4988847;28;20042;-86
2023/11/28 09:52:58;;;;;;;0.20;0.10;;;;;;;;;;5002839;28;19928;-84
2023/11/28 09:55:24;;;;;;;0.20;0.10;;;;;;;;;;5018745;28;20068;-84
2023/11/28 09:57:50;;;;;;;0.20;0.10;;;;;;;;;;4978528;28;20077;-82
2023/11/28 10:00:17;;;;;;;0.20;0.10;;;;;;;;;;4999231;28;20046;-84
2023/11/28 10:02:44;;;;;;;0.20;0.10;;;;;;;;;;5015770;28;20123;-86
2023/11/28 10:05:14;;;;;;;0.20;0.10;;;;;;;;;;4995244;23;20042;-85
2023/11/28 10:07:42;;;;;;;0.20;0.10;;;;;;;;;;4987523;28;20033;-85
2023/11/28 10:10:09;;;;;;;0.20;0.10;;;;;;;;;;4984469;28;20045;-86
2023/11/28 10:12:36;;;;;;;0.20;0.10;;;;;;;;;;4988974;28;20052;-85
2023/11/28 10:15:10;;;;;;;0.20;0.13;;;;;;;;;;4977292;28;20046;-85
2023/11/28 10:17:37;;;;;;;0.20;0.10;;;;;;;;;;4987757;28;20053;-85
2023/11/28 10:20:07;;;;;;;0.20;0.10;;;;;;;;;;4973761;28;20136;-86
2023/11/28 10:22:33;;;;;;;0.20;0.10;;;;;;;;;;4970759;28;20123;-82
2023/11/28 10:25:00;;;;;;;0.20;0.10;;;;;;;;;;4973922;28;20042;-84
2023/11/28 10:27:28;;;;;;;0.20;0.10;;;;;;;;;;4984268;28;20116;-86
2023/11/28 10:30:09;;;;;;;0.20;0.10;;;;;;;;;;4987303;28;20046;-85
2023/11/28 10:32:36;;;;;;;0.20;0.10;;;;;;;;;;4969611;28;20044;-86
2023/11/28 10:35:02;;;;;;;0.20;0.10;;;;;;;;;;4986451;28;20045;-85
2023/11/28 10:37:28;;;;;;;0.20;0.00;;;;;;;;;;4986573;28;20073;-83
2023/11/28 10:39:55;;;;;;;0.20;0.00;;;;;;;;;;4985043;28;20045;-84
2023/11/28 10:42:21;;;;;;;0.20;0.10;;;;;;;;;;4989428;28;20069;-85
2023/11/28 10:44:48;;;;;;;0.20;0.10;;;;;;;;;;4971273;28;20041;-85
2023/11/28 10:47:20;;;;;;;0.20;0.10;;;;;;;;;;4985794;28;20479;-83
2023/11/28 10:49:50;;;;;;;0.20;0.10;;;;;;;;;;4986236;28;20456;-84
2023/11/28 10:52:19;;;;;;;0.20;0.10;;;;;;;;;;4968707;28;20058;-85
2023/11/28 10:54:53;;;;;;;0.20;0.10;;;;;;;;;;4981404;28;20042;-82
2023/11/28 10:57:26;;;;;;;0.20;0.00;;;;;;;;;;4988524;28;20045;-86
2023/11/28 10:59:53;;;;;;;0.20;0.10;;;;;;;;;;4975743;28;20441;-85
2023/11/28 11:02:19;;;;;;;0.20;0.10;;;;;;;;;;4974957;28;20072;-82
2023/11/28 11:04:52;;;;;;;0.20;0.10;;;;;;;;;;4974118;28;20117;-83
2023/11/28 11:07:19;;;;;;;0.20;0.10;;;;;;;;;;4978362;28;20038;-85
2023/11/28 11:09:49;;;;;;;0.20;0.10;;;;;;;;;;4971569;28;20042;-84
2023/11/28 11:12:16;;;;;;;0.20;0.10;;;;;;;;;;4971496;28;20048;-82
2023/11/28 11:15:05;;;;;;;0.20;0.10;;;;;;;;;;4988151;28;20042;-85
2023/11/28 11:17:38;;;;;;;0.20;0.10;;;;;;;;;;4972002;28;20050;-85
2023/11/28 11:20:06;;;;;;;0.20;0.10;;;;;;;;;;4990820;28;20042;-84
2023/11/28 11:22:34;;;;;;;0.20;0.10;;;;;;;;;;4974345;28;20046;-84
2023/11/28 11:25:00;;;;;;;0.20;0.10;;;;;;;;;;4970054;28;22392;-85
2023/11/28 11:27:30;;;;;;;0.20;0.10;;;;;;;;;;4972911;28;20057;-85
2023/11/28 11:30:05;;;;;;;0.20;0.10;;;;;;;;;;4985561;28;20124;-86
2023/11/28 11:32:57;;;;;;;0.20;0.10;;;;;;;;;;4977835;28;20042;-84
2023/11/28 11:35:24;;;;;;;0.20;0.10;;;;;;;;;;4991694;28;20050;-85
2023/11/28 11:37:53;;;;;;;0.20;0.08;;;;;;;;;;4975008;28;20091;-84
2023/11/28 11:40:19;;;;;;;0.20;0.00;;;;;;;;;;4976246;28;20095;-83
2023/11/28 11:42:45;;;;;;;0.20;0.05;;;;;;;;;;4976605;28;20139;-84
2023/11/28 11:45:11;;;;;;;0.20;0.10;;;;;;;;;;4977447;28;20053;-85
2023/11/28 11:47:38;;;;;;;0.20;0.00;;;;;;;;;;4979840;28;20601;-84
2023/11/28 11:50:06;;;;;;;0.20;0.10;;;;;;;;;;4974449;28;20047;-85
2023/11/28 11:52:33;;;;;;;0.20;0.00;;;;;;;;;;4969966;28;20419;-85
2023/11/28 11:55:06;;;;;;;0.30;0.25;;;;;;;;;;4973964;28;20034;-84
2023/11/28 11:57:33;;;;;;;0.20;0.10;;;;;;;;;;4978910;28;20042;-87
2023/11/28 12:00:02;;;;;;;0.20;0.10;;;;;;;;;;4972646;28;20053;-85
2023/11/28 12:02:41;;;;;;;0.20;0.10;;;;;;;;;;4972706;28;20038;-85
2023/11/28 12:05:10;;;;;;;0.20;0.10;;;;;;;;;;4974569;28;20070;-85
2023/11/28 12:07:36;;;;;;;0.20;0.10;;;;;;;;;;4974706;28;20034;-85
2023/11/28 12:10:09;;;;;;;0.20;0.10;;;;;;;;;;4981444;28;20335;-85
2023/11/28 12:12:40;;;;;;;0.20;0.10;;;;;;;;;;4983405;28;20054;-86
2023/11/28 12:15:08;;;;;;;0.20;0.10;;;;;;;;;;4972740;28;20038;-85
2023/11/28 12:17:37;;;;;;;0.20;0.10;;;;;;;;;;4968069;28;20048;-86
2023/11/28 12:20:04;;;;;;;0.20;0.00;;;;;;;;;;4975546;28;20532;-86
2023/11/28 12:22:33;;;;;;;0.20;0.10;;;;;;;;;;4979857;28;20119;-85
2023/11/28 12:25:00;;;;;;;0.20;0.10;;;;;;;;;;4972279;28;20124;-85
2023/11/28 12:27:26;;;;;;;0.20;0.00;;;;;;;;;;4982515;28;20041;-85
2023/11/28 12:29:52;;;;;;;0.20;0.10;;;;;;;;;;4971677;28;20088;-85
2023/11/28 12:32:19;;;;;;;0.20;0.10;;;;;;;;;;4968241;28;20049;-84
2023/11/28 12:34:45;;;;;;;0.20;0.10;;;;;;;;;;4985123;28;20056;-85
2023/11/28 12:37:11;;;;;;;0.20;0.00;;;;;;;;;;4973550;28;20191;-85
2023/11/28 12:39:40;;;;;;;0.20;0.05;;;;;;;;;;4974668;28;20038;-85
2023/11/28 12:42:06;;;;;;;0.20;0.00;;;;;;;;;;4973081;28;20295;-85
2023/11/28 12:44:35;;;;;;;0.20;0.10;;;;;;;;;;4974607;28;20811;-86
2023/11/28 12:47:03;;;;;;;0.20;0.00;;;;;;;;;;4995919;28;20419;-85
2023/11/28 12:49:29;;;;;;;0.20;0.10;;;;;;;;;;4968125;28;20042;-86
2023/11/28 12:51:58;;;;;;;0.20;0.20;;;;;;;;;;4985240;28;20501;-86
2023/11/28 12:54:25;;;;;;;0.20;0.10;;;;;;;;;;4987333;28;20089;-85
2023/11/28 12:56:55;;;;;;;0.20;0.00;;;;;;;;;;4985568;28;20038;-85
2023/11/28 12:59:22;;;;;;;0.20;0.10;;;;;;;;;;4984709;28;20037;-85
2023/11/28 13:01:48;;;;;;;0.20;0.10;;;;;;;;;;4990826;28;20077;-85
2023/11/28 13:04:15;;;;;;;0.20;0.10;;;;;;;;;;5001636;28;20285;-84
2023/11/28 13:06:43;;;;;;;0.20;0.03;;;;;;;;;;4985812;28;20038;-85
2023/11/28 13:09:10;;;;;;;0.30;0.20;;;;;;;;;;4975025;28;20151;-85
2023/11/28 13:11:36;;;;;;;0.20;0.10;;;;;;;;;;4978429;28;20050;-85
2023/11/28 13:14:02;;;;;;;0.20;0.10;;;;;;;;;;4974403;28;20042;-85
2023/11/28 13:16:29;;;;;;;0.20;0.10;;;;;;;;;;4984032;28;20522;-84
2023/11/28 13:18:55;;;;;;;0.20;0.10;;;;;;;;;;4969817;28;20045;-85
2023/11/28 13:21:21;;;;;;;0.20;0.10;;;;;;;;;;4987076;28;20044;-84
2023/11/28 13:23:54;;;;;;;0.20;0.10;;;;;;;;;;4971783;28;20546;-85
2023/11/28 13:26:20;;;;;;;0.20;0.10;;;;;;;;;;4970892;28;20045;-84
2023/11/28 13:28:46;;;;;;;0.20;0.10;;;;;;;;;;4967505;28;20035;-84
2023/11/28 13:31:12;;;;;;;0.20;0.10;;;;;;;;;;4979179;28;20572;-85
2023/11/28 13:33:45;;;;;;;0.20;0.00;;;;;;;;;;4990152;28;20045;-85
2023/11/28 13:36:14;;;;;;;0.20;0.10;;;;;;;;;;4984371;28;20124;-84
2023/11/28 13:38:44;;;;;;;0.20;0.00;;;;;;;;;;4969382;28;20030;-84
2023/11/28 13:41:16;;;;;;;0.20;0.10;;;;;;;;;;4985001;28;20048;-85
2023/11/28 13:43:42;;;;;;;0.20;0.10;;;;;;;;;;4972068;28;20034;-85
2023/11/28 13:46:08;;;;;;;0.20;0.00;;;;;;;;;;4985219;28;20038;-84
2023/11/28 13:48:39;;;;;;;0.20;0.10;;;;;;;;;;4982511;28;20081;-85
2023/11/28 13:51:06;;;;;;;0.20;0.10;;;;;;;;;;4998684;28;20049;-84
2023/11/28 13:53:33;;;;;;;0.20;0.10;;;;;;;;;;4982931;28;20088;-84
2023/11/28 13:55:59;;;;;;;0.20;0.10;;;;;;;;;;4994832;28;20053;-84
2023/11/28 13:58:25;;;;;;;0.20;0.10;;;;;;;;;;4997280;28;20046;-84
2023/11/28 14:00:53;;;;;;;0.20;0.10;;;;;;;;;;4996676;28;20513;-84
2023/11/28 14:03:19;;;;;;;0.20;0.10;;;;;;;;;;4981709;28;20598;-83
2023/11/28 14:05:46;;;;;;;0.20;0.10;;;;;;;;;;4985228;28;20041;-83
2023/11/28 14:08:12;;;;;;;0.20;0.10;;;;;;;;;;4982471;28;20092;-83
2023/11/28 14:10:38;;;;;;;0.20;0.00;;;;;;;;;;4990956;28;20561;-84
2023/11/28 14:13:04;;;;;;;0.20;0.00;;;;;;;;;;4997063;28;20049;-84
2023/11/28 14:15:32;;;;;;;0.20;0.00;;;;;;;;;;4987923;28;20049;-84
2023/11/28 14:17:58;;;;;;;0.20;0.10;;;;;;;;;;4993129;28;20407;-84
2023/11/28 14:20:24;;;;;;;0.20;0.10;;;;;;;;;;4993553;28;20049;-84
2023/11/28 14:22:50;;;;;;;0.20;0.10;;;;;;;;;;4979799;28;20046;-85
2023/11/28 14:25:16;;;;;;;0.20;0.10;;;;;;;;;;4991035;28;20042;-83
2023/11/28 14:27:43;;;;;;;0.20;0.10;;;;;;;;;;4984078;28;20033;-84
2023/11/28 14:30:10;;;;;;;0.20;0.10;;;;;;;;;;4990236;28;20044;-84
2023/11/28 14:32:36;;;;;;;0.20;0.10;;;;;;;;;;4996115;28;20177;-84
2023/11/28 14:35:09;;;;;;;0.20;0.00;;;;;;;;;;4973554;28;20057;-84
2023/11/28 14:37:35;;;;;;;0.20;0.00;;;;;;;;;;5013803;28;20045;-84
2023/11/28 14:40:03;;;;;;;0.20;0.08;;;;;;;;;;4977359;28;20045;-84
2023/11/28 14:42:29;;;;;;;0.20;0.10;;;;;;;;;;4983277;28;20050;-84
2023/11/28 14:44:55;;;;;;;0.20;0.10;;;;;;;;;;4988225;28;20042;-84
2023/11/28 14:47:21;;;;;;;0.20;0.10;;;;;;;;;;4972339;28;20040;-83